Time,TemperatureF,DewpointF,PressureIn,WindDirection,WindDirectionDegrees,WindSpeedMPH,WindSpeedGustMPH,Humidity,HourlyPrecipIn,Conditions,Clouds,dailyrainin,SolarRadiationWatts/m^2,SoftwareType,DateUTC
2013-07-16 10:50:00,63.0,52.0,-100.00,SSE,156,11.0,20.0,68,-99.99,,,0.00,721.000000,,2013-07-16 17:50:00,
2013-07-16 11:43:00,63.0,52.0,-100.00,SSE,156,11.0,20.0,68,-99.99,,,0.00,721.000000,,2013-07-16 18:43:00,
2013-07-16 11:50:00,68.0,53.0,-100.00,SSE,157,9.0,17.0,59,0.00,,,0.00,847.000000,,2013-07-16 18:50:00,
2013-07-16 12:22:00,68.0,53.0,-100.00,SSE,157,9.0,17.0,59,0.00,,,0.00,847.000000,,2013-07-16 19:22:00,
2013-07-16 12:32:00,68.0,53.0,-100.00,SSE,157,9.0,17.0,59,0.00,,,0.00,847.000000,,2013-07-16 19:32:00,
2013-07-16 12:43:00,68.0,53.0,-100.00,SSE,157,9.0,17.0,59,0.00,,,0.00,847.000000,,2013-07-16 19:43:00,
2013-07-16 13:43:00,74.0,55.0,-100.00,NW,306,5.0,14.0,52,0.00,,,0.00,924.000000,,2013-07-16 20:43:00,
2013-07-16 13:50:00,76.0,55.0,-100.00,West,266,8.0,16.0,48,0.00,,,0.00,937.000000,,2013-07-16 20:50:00,
2013-07-16 14:22:00,76.0,55.0,-100.00,West,266,8.0,16.0,48,0.00,,,0.00,937.000000,,2013-07-16 21:22:00,
2013-07-16 14:32:00,76.0,55.0,-100.00,West,266,8.0,16.0,48,0.00,,,0.00,937.000000,,2013-07-16 21:32:00,
2013-07-16 14:43:00,76.0,55.0,-100.00,West,266,8.0,16.0,48,0.00,,,0.00,937.000000,,2013-07-16 21:43:00,
2013-07-16 14:50:00,77.0,55.0,-100.00,WSW,251,10.0,18.0,47,0.00,,,0.00,922.000000,,2013-07-16 21:50:00,
2013-07-16 15:22:00,77.0,55.0,-100.00,WSW,251,10.0,18.0,47,0.00,,,0.00,922.000000,,2013-07-16 22:22:00,
2013-07-16 15:33:00,77.0,55.0,-100.00,WSW,251,10.0,18.0,47,0.00,,,0.00,922.000000,,2013-07-16 22:33:00,
2013-07-16 15:43:00,77.0,55.0,-100.00,WSW,251,10.0,18.0,47,0.00,,,0.00,922.000000,,2013-07-16 22:43:00,
2013-07-16 15:50:00,77.0,55.0,-100.00,West,269,11.0,19.0,46,0.00,,,0.00,845.000000,,2013-07-16 22:50:00,
2013-07-16 16:22:00,77.0,55.0,-100.00,West,269,11.0,19.0,46,0.00,,,0.00,845.000000,,2013-07-16 23:22:00,
2013-07-16 16:32:00,77.0,55.0,-100.00,West,269,11.0,19.0,46,0.00,,,0.00,845.000000,,2013-07-16 23:32:00,
2013-07-16 16:42:00,77.0,55.0,-100.00,West,269,11.0,19.0,46,0.00,,,0.00,845.000000,,2013-07-16 23:42:00,
2013-07-16 16:50:00,78.0,56.0,-100.00,South,191,6.0,15.0,46,0.00,,,0.00,719.000000,,2013-07-16 23:50:00,
2013-07-16 17:22:00,78.0,56.0,-100.00,South,191,6.0,15.0,46,0.00,,,0.00,719.000000,,2013-07-17 00:22:00,
2013-07-16 17:33:00,78.0,56.0,-100.00,South,191,6.0,15.0,46,0.00,,,0.00,719.000000,,2013-07-17 00:33:00,
2013-07-16 17:42:00,78.0,56.0,-100.00,South,191,6.0,15.0,46,0.00,,,0.00,719.000000,,2013-07-17 00:42:00,
2013-07-16 17:50:00,72.0,52.0,-100.00,NNW,328,15.0,20.0,49,0.00,,,0.00,559.000000,,2013-07-17 00:50:00,
2013-07-16 18:22:00,72.0,52.0,-100.00,NNW,328,15.0,20.0,49,0.00,,,0.00,559.000000,,2013-07-17 01:22:00,
2013-07-16 18:32:00,72.0,52.0,-100.00,NNW,328,15.0,20.0,49,0.00,,,0.00,559.000000,,2013-07-17 01:32:00,
2013-07-16 18:42:00,72.0,52.0,-100.00,NNW,328,15.0,20.0,49,0.00,,,0.00,559.000000,,2013-07-17 01:42:00,
2013-07-16 18:50:00,68.0,52.0,-100.00,NNW,329,15.0,21.0,56,0.00,,,0.00,376.000000,,2013-07-17 01:50:00,
2013-07-16 19:22:00,68.0,52.0,-100.00,NNW,329,15.0,21.0,56,0.00,,,0.00,376.000000,,2013-07-17 02:22:00,
2013-07-16 19:32:00,68.0,52.0,-100.00,NNW,329,15.0,21.0,56,0.00,,,0.00,376.000000,,2013-07-17 02:32:00,
2013-07-16 19:43:00,68.0,52.0,-100.00,NNW,329,15.0,21.0,56,0.00,,,0.00,376.000000,,2013-07-17 02:43:00,
2013-07-16 19:50:00,63.0,51.0,-100.00,NNW,327,12.0,18.0,64,0.00,,,0.00,190.000000,,2013-07-17 02:50:00,
2013-07-16 20:43:00,63.0,51.0,-100.00,NNW,327,12.0,18.0,64,0.00,,,0.00,190.000000,,2013-07-17 03:43:00,
2013-07-16 20:50:00,58.0,52.0,-100.00,NW,324,10.0,15.0,79,0.00,,,-99.99,33.000000,,2013-07-17 03:50:00,
2013-07-16 21:22:00,58.0,52.0,-100.00,NW,324,10.0,15.0,79,0.00,,,-99.99,33.000000,,2013-07-17 04:22:00,
2013-07-16 21:32:00,58.0,52.0,-100.00,NW,324,10.0,15.0,79,0.00,,,-99.99,33.000000,,2013-07-17 04:32:00,
2013-07-16 21:43:00,58.0,52.0,-100.00,NW,324,10.0,15.0,79,0.00,,,-99.99,33.000000,,2013-07-17 04:43:00,
2013-07-16 21:50:00,58.0,54.0,-100.00,NW,317,6.0,12.0,85,0.00,,,-99.99,1.000000,,2013-07-17 04:50:00,
2013-07-16 22:21:00,58.0,54.0,-100.00,NW,317,6.0,12.0,85,0.00,,,-99.99,1.000000,,2013-07-17 05:21:00,
2013-07-16 22:32:00,58.0,54.0,-100.00,NW,317,6.0,12.0,85,0.00,,,-99.99,1.000000,,2013-07-17 05:32:00,
2013-07-16 22:43:00,58.0,54.0,-100.00,NW,317,6.0,12.0,85,0.00,,,-99.99,1.000000,,2013-07-17 05:43:00,
2013-07-16 22:50:00,57.0,53.0,-100.00,NNW,338,8.0,11.0,85,0.00,,,-99.99,0.000000,,2013-07-17 05:50:00,
2013-07-16 23:22:00,57.0,53.0,-100.00,NNW,338,8.0,11.0,85,0.00,,,-99.99,0.000000,,2013-07-17 06:22:00,
2013-07-16 23:32:00,57.0,53.0,-100.00,NNW,338,8.0,11.0,85,0.00,,,-99.99,0.000000,,2013-07-17 06:32:00,
2013-07-16 23:43:00,57.0,53.0,-100.00,NNW,338,8.0,11.0,85,0.00,,,-99.99,0.000000,,2013-07-17 06:43:00,
2013-07-16 23:50:00,56.0,52.0,-100.00,NNW,341,8.0,11.0,88,0.00,,,-99.99,0.000000,,2013-07-17 06:50:00,